Time;durP1;ratioP1;P1;durP2;ratioP2;P2;SDS_P1;SDS_P2;PMS_P1;PMS_P2;Temp;Humidity;BMP_temperature;BMP_pressure;BME280_temperature;BME280_humidity;BME280_pressure;Samples;Min_cycle;Max_cycle;Signal;HPM_P1;HPM_P2
2023/06/19 00:00:50;;;;;;;6.10;2.80;;;;;;;;;;5023928;28;20049;-72
2023/06/19 00:03:15;;;;;;;3.97;2.58;;;;;;;;;;5023296;28;20430;-72
2023/06/19 00:05:41;;;;;;;5.40;3.00;;;;;;;;;;5022050;28;20040;-72
2023/06/19 00:08:06;;;;;;;6.45;2.65;;;;;;;;;;5023495;28;20033;-72
2023/06/19 00:10:32;;;;;;;4.28;2.72;;;;;;;;;;5029923;28;20044;-72
2023/06/19 00:12:58;;;;;;;5.35;3.08;;;;;;;;;;5022798;28;20048;-72
2023/06/19 00:15:23;;;;;;;6.07;2.88;;;;;;;;;;5023250;28;20088;-72
2023/06/19 00:17:48;;;;;;;5.82;3.20;;;;;;;;;;5024339;28;20040;-72
2023/06/19 00:20:13;;;;;;;5.43;3.10;;;;;;;;;;5022404;28;20026;-72
2023/06/19 00:22:40;;;;;;;6.70;3.38;;;;;;;;;;5024230;28;20033;-72
2023/06/19 00:25:06;;;;;;;6.55;3.05;;;;;;;;;;5028901;28;20040;-72
2023/06/19 00:27:31;;;;;;;6.35;3.05;;;;;;;;;;5037243;28;20041;-72
2023/06/19 00:30:01;;;;;;;5.32;3.17;;;;;;;;;;5030481;28;20095;-72
2023/06/19 00:32:30;;;;;;;4.88;2.85;;;;;;;;;;5029895;28;20694;-72
2023/06/19 00:34:56;;;;;;;5.22;3.20;;;;;;;;;;5027054;28;20040;-72
2023/06/19 00:37:21;;;;;;;7.05;3.58;;;;;;;;;;5027033;28;20391;-72
2023/06/19 00:39:47;;;;;;;7.53;3.63;;;;;;;;;;5027281;28;20029;-72
2023/06/19 00:42:12;;;;;;;8.63;3.40;;;;;;;;;;5027195;28;20415;-72
2023/06/19 00:44:37;;;;;;;5.30;3.20;;;;;;;;;;5026768;28;20499;-72
2023/06/19 00:47:04;;;;;;;8.90;3.25;;;;;;;;;;5027004;28;20478;-72
2023/06/19 00:49:30;;;;;;;7.78;3.47;;;;;;;;;;5014382;28;20029;-72
2023/06/19 00:51:56;;;;;;;9.32;3.53;;;;;;;;;;5027345;28;20057;-72
2023/06/19 00:54:22;;;;;;;9.00;3.60;;;;;;;;;;5026202;28;20029;-72
2023/06/19 00:56:48;;;;;;;12.52;3.83;;;;;;;;;;5026551;28;20503;-72
2023/06/19 00:59:19;;;;;;;7.25;3.63;;;;;;;;;;5026531;28;20041;-71
2023/06/19 01:01:45;;;;;;;6.13;3.58;;;;;;;;;;5026161;28;20052;-72
2023/06/19 01:04:11;;;;;;;6.57;3.53;;;;;;;;;;5026776;28;20054;-72
2023/06/19 01:06:47;;;;;;;6.15;3.45;;;;;;;;;;5026303;28;20037;-72
2023/06/19 01:09:15;;;;;;;8.82;3.78;;;;;;;;;;5013521;28;20099;-72
2023/06/19 01:11:48;;;;;;;6.07;3.80;;;;;;;;;;5025601;28;20033;-72
2023/06/19 01:14:25;;;;;;;9.25;4.25;;;;;;;;;;5026448;28;20764;-72
2023/06/19 01:16:51;;;;;;;5.97;4.00;;;;;;;;;;5026116;28;20026;-72
2023/06/19 01:19:20;;;;;;;6.50;3.78;;;;;;;;;;5026253;28;20415;-72
2023/06/19 01:21:46;;;;;;;10.10;4.38;;;;;;;;;;5026194;28;20013;-72
2023/06/19 01:24:12;;;;;;;7.57;4.25;;;;;;;;;;5026199;28;20033;-72
2023/06/19 01:26:37;;;;;;;9.02;4.65;;;;;;;;;;5025852;28;20611;-72
2023/06/19 01:29:04;;;;;;;11.45;4.50;;;;;;;;;;5025723;28;20057;-72
2023/06/19 01:31:35;;;;;;;12.73;4.63;;;;;;;;;;5025816;28;20021;-72
2023/06/19 01:34:02;;;;;;;5.85;4.28;;;;;;;;;;5026580;28;20014;-72
2023/06/19 01:36:29;;;;;;;9.40;4.18;;;;;;;;;;5025184;28;20196;-72
2023/06/19 01:38:57;;;;;;;8.00;4.63;;;;;;;;;;5025450;28;20755;-72
2023/06/19 01:41:23;;;;;;;8.90;4.68;;;;;;;;;;5010810;28;20029;-72
2023/06/19 01:43:49;;;;;;;11.43;5.18;;;;;;;;;;5018281;28;20037;-72
2023/06/19 01:46:14;;;;;;;8.50;4.97;;;;;;;;;;5013909;28;20036;-72
2023/06/19 01:48:40;;;;;;;15.98;5.30;;;;;;;;;;5014614;28;20033;-72
2023/06/19 01:51:06;;;;;;;11.32;5.72;;;;;;;;;;5024435;28;20612;-72
2023/06/19 01:53:31;;;;;;;8.35;5.10;;;;;;;;;;5029195;28;20048;-72
2023/06/19 01:56:01;;;;;;;11.38;5.63;;;;;;;;;;5034021;28;20045;-72
2023/06/19 01:58:26;;;;;;;9.68;5.28;;;;;;;;;;5026970;28;20033;-72
2023/06/19 02:00:51;;;;;;;12.20;5.63;;;;;;;;;;5026242;28;20021;-72
2023/06/19 02:03:17;;;;;;;10.27;5.88;;;;;;;;;;5024048;28;20037;-72
2023/06/19 02:05:42;;;;;;;10.48;6.35;;;;;;;;;;5022459;28;20060;-72
2023/06/19 02:08:08;;;;;;;9.02;6.10;;;;;;;;;;5023756;28;20030;-72
2023/06/19 02:10:33;;;;;;;12.25;5.93;;;;;;;;;;5024809;28;20038;-72
2023/06/19 02:12:58;;;;;;;8.95;6.03;;;;;;;;;;5026065;28;20033;-72
2023/06/19 02:15:24;;;;;;;11.95;6.50;;;;;;;;;;5020259;28;20116;-72
2023/06/19 02:17:54;;;;;;;12.20;6.85;;;;;;;;;;5028319;28;20546;-72
2023/06/19 02:20:20;;;;;;;11.05;6.88;;;;;;;;;;5024653;28;20030;-72
2023/06/19 02:22:46;;;;;;;13.20;6.50;;;;;;;;;;5025192;28;20026;-72
2023/06/19 02:25:11;;;;;;;10.27;6.53;;;;;;;;;;5025744;28;20380;-72
2023/06/19 02:27:36;;;;;;;11.68;5.78;;;;;;;;;;5021403;28;20033;-72
2023/06/19 02:30:03;;;;;;;9.32;4.43;;;;;;;;;;5023908;28;20529;-72
2023/06/19 02:32:28;;;;;;;6.63;4.82;;;;;;;;;;5024970;28;20064;-72
2023/06/19 02:34:53;;;;;;;7.43;4.60;;;;;;;;;;5024341;28;20402;-72
2023/06/19 02:37:19;;;;;;;9.38;5.28;;;;;;;;;;5023870;28;20071;-72
2023/06/19 02:39:44;;;;;;;7.10;4.57;;;;;;;;;;5011669;28;20025;-72
2023/06/19 02:42:10;;;;;;;10.30;4.95;;;;;;;;;;5017615;28;20133;-72
2023/06/19 02:44:35;;;;;;;7.72;4.82;;;;;;;;;;5028205;28;20804;-72
2023/06/19 02:47:01;;;;;;;8.23;5.13;;;;;;;;;;5024267;28;20049;-72
2023/06/19 02:49:26;;;;;;;10.82;5.45;;;;;;;;;;5023904;28;20399;-72
2023/06/19 02:51:51;;;;;;;9.30;5.28;;;;;;;;;;5025277;28;20017;-73
2023/06/19 02:54:17;;;;;;;11.48;5.35;;;;;;;;;;5024535;28;20043;-72
2023/06/19 02:56:42;;;;;;;11.82;5.53;;;;;;;;;;5023813;28;20029;-72
2023/06/19 02:59:07;;;;;;;8.15;5.05;;;;;;;;;;5024896;28;20482;-72
2023/06/19 03:01:33;;;;;;;12.15;5.57;;;;;;;;;;5024505;28;20072;-72
2023/06/19 03:03:59;;;;;;;7.55;4.53;;;;;;;;;;5024455;28;20111;-72
2023/06/19 03:06:25;;;;;;;8.77;5.05;;;;;;;;;;5024584;28;20427;-72
2023/06/19 03:08:51;;;;;;;9.88;4.88;;;;;;;;;;5024381;28;20041;-72
2023/06/19 03:11:16;;;;;;;8.73;5.50;;;;;;;;;;5024104;28;20033;-70
2023/06/19 03:13:50;;;;;;;9.55;5.80;;;;;;;;;;5024294;28;20832;-72
2023/06/19 03:16:16;;;;;;;10.50;6.22;;;;;;;;;;5024619;28;20014;-72
2023/06/19 03:18:44;;;;;;;12.15;6.28;;;;;;;;;;5025957;28;20017;-72
2023/06/19 03:21:13;;;;;;;14.07;7.47;;;;;;;;;;5030281;28;20103;-72
2023/06/19 03:23:38;;;;;;;11.32;6.80;;;;;;;;;;5032783;28;20087;-72
2023/06/19 03:26:04;;;;;;;14.10;7.55;;;;;;;;;;5024469;28;20034;-72
2023/06/19 03:28:29;;;;;;;14.00;7.35;;;;;;;;;;5023191;28;20030;-72
2023/06/19 03:30:55;;;;;;;13.30;7.15;;;;;;;;;;5024396;28;20029;-72
2023/06/19 03:33:20;;;;;;;13.60;8.27;;;;;;;;;;5024091;28;20121;-72
2023/06/19 03:35:46;;;;;;;15.02;7.70;;;;;;;;;;5023607;28;20033;-72
2023/06/19 03:38:11;;;;;;;14.50;8.15;;;;;;;;;;5023807;28;20080;-72
2023/06/19 03:40:36;;;;;;;16.10;7.78;;;;;;;;;;5024035;28;20053;-72
2023/06/19 03:43:02;;;;;;;16.65;8.68;;;;;;;;;;5029416;28;20022;-72
2023/06/19 03:45:27;;;;;;;16.98;8.20;;;;;;;;;;5031883;28;20033;-72
2023/06/19 03:47:53;;;;;;;14.25;7.78;;;;;;;;;;5022917;28;20049;-72
2023/06/19 03:50:18;;;;;;;13.23;8.25;;;;;;;;;;5023754;28;20029;-72
2023/06/19 03:52:43;;;;;;;15.68;7.97;;;;;;;;;;5035802;28;20029;-72
2023/06/19 03:55:09;;;;;;;15.55;8.43;;;;;;;;;;5024160;28;20061;-72
2023/06/19 03:57:34;;;;;;;14.07;7.63;;;;;;;;;;5024103;28;20053;-72
2023/06/19 03:59:59;;;;;;;13.38;7.57;;;;;;;;;;5025161;28;20029;-72
2023/06/19 04:02:25;;;;;;;14.70;7.78;;;;;;;;;;5025942;28;20037;-72
2023/06/19 04:04:51;;;;;;;15.35;7.38;;;;;;;;;;5027053;28;20113;-72
2023/06/19 04:07:16;;;;;;;14.35;7.43;;;;;;;;;;5027001;28;20125;-72
2023/06/19 04:09:41;;;;;;;15.15;7.85;;;;;;;;;;5028258;28;20503;-72
2023/06/19 04:12:07;;;;;;;12.77;7.85;;;;;;;;;;5023025;28;20029;-73
2023/06/19 04:14:32;;;;;;;11.68;7.22;;;;;;;;;;5024748;28;20029;-72
2023/06/19 04:16:58;;;;;;;13.98;8.15;;;;;;;;;;5027765;28;20707;-73
2023/06/19 04:19:23;;;;;;;15.82;7.80;;;;;;;;;;5027404;28;20025;-72
2023/06/19 04:21:48;;;;;;;12.68;7.22;;;;;;;;;;5030451;28;20491;-72
2023/06/19 04:24:14;;;;;;;15.00;7.88;;;;;;;;;;5028421;28;20087;-73
2023/06/19 04:26:39;;;;;;;17.95;7.70;;;;;;;;;;5027348;28;20120;-72
2023/06/19 04:29:06;;;;;;;14.20;7.85;;;;;;;;;;5027190;28;20033;-72
2023/06/19 04:31:32;;;;;;;15.18;7.25;;;;;;;;;;5027235;28;20747;-72
2023/06/19 04:33:57;;;;;;;12.43;7.47;;;;;;;;;;5017540;28;20022;-72
2023/06/19 04:36:22;;;;;;;13.50;7.82;;;;;;;;;;5024105;28;20466;-73
2023/06/19 04:38:51;;;;;;;12.80;7.32;;;;;;;;;;5027086;28;20099;-72
2023/06/19 04:41:16;;;;;;;13.60;8.18;;;;;;;;;;5027056;28;20080;-72
2023/06/19 04:43:42;;;;;;;15.88;7.63;;;;;;;;;;5027438;28;20038;-72
2023/06/19 04:46:07;;;;;;;13.68;8.45;;;;;;;;;;5027069;28;20079;-72
2023/06/19 04:48:35;;;;;;;14.50;8.30;;;;;;;;;;5031384;28;20049;-72
2023/06/19 04:51:01;;;;;;;18.48;9.48;;;;;;;;;;5037017;28;20060;-72
2023/06/19 04:53:27;;;;;;;15.10;8.48;;;;;;;;;;5027721;28;20030;-71
2023/06/19 04:55:54;;;;;;;14.35;8.52;;;;;;;;;;5026245;28;20022;-72
2023/06/19 04:58:20;;;;;;;15.02;8.90;;;;;;;;;;5026657;28;20021;-72
2023/06/19 05:00:50;;;;;;;15.02;8.82;;;;;;;;;;5026485;28;20055;-73
2023/06/19 05:03:19;;;;;;;17.80;8.80;;;;;;;;;;5025072;28;20427;-73
2023/06/19 05:05:44;;;;;;;15.98;8.60;;;;;;;;;;5026160;28;20112;-73
2023/06/19 05:08:10;;;;;;;14.30;8.30;;;;;;;;;;5026324;28;20570;-72
2023/06/19 05:10:35;;;;;;;16.60;9.07;;;;;;;;;;5026278;28;20049;-72
2023/06/19 05:13:01;;;;;;;15.77;9.25;;;;;;;;;;5026179;28;20029;-72
2023/06/19 05:15:27;;;;;;;18.33;10.00;;;;;;;;;;5025084;28;20037;-72
2023/06/19 05:17:53;;;;;;;15.68;10.27;;;;;;;;;;5026908;28;20042;-71
2023/06/19 05:20:18;;;;;;;18.70;9.88;;;;;;;;;;5025598;28;20407;-71
2023/06/19 05:22:44;;;;;;;20.23;10.68;;;;;;;;;;5026219;28;20124;-71
2023/06/19 05:25:09;;;;;;;20.23;11.02;;;;;;;;;;5026448;28;20029;-71
2023/06/19 05:27:34;;;;;;;21.10;10.95;;;;;;;;;;5026291;28;20061;-71
2023/06/19 05:30:00;;;;;;;21.83;10.52;;;;;;;;;;5026229;28;20041;-71
2023/06/19 05:32:25;;;;;;;21.42;11.10;;;;;;;;;;5025924;28;20033;-71
2023/06/19 05:34:50;;;;;;;19.73;11.45;;;;;;;;;;5018079;28;20033;-71
2023/06/19 05:37:16;;;;;;;21.30;10.15;;;;;;;;;;5021875;28;20491;-71
2023/06/19 05:39:42;;;;;;;20.10;10.43;;;;;;;;;;5025722;28;20027;-71
2023/06/19 05:42:07;;;;;;;19.88;11.10;;;;;;;;;;5025677;28;20064;-71
2023/06/19 05:44:32;;;;;;;17.98;10.38;;;;;;;;;;5012378;28;20053;-71
2023/06/19 05:46:58;;;;;;;18.33;10.57;;;;;;;;;;5024756;28;20037;-71
2023/06/19 05:49:23;;;;;;;19.05;10.25;;;;;;;;;;5025999;28;20262;-71
2023/06/19 05:51:49;;;;;;;19.65;10.60;;;;;;;;;;5025920;28;20108;-71
2023/06/19 05:54:14;;;;;;;18.98;9.88;;;;;;;;;;5024958;28;20065;-71
2023/06/19 05:56:39;;;;;;;17.50;9.45;;;;;;;;;;5025231;28;20032;-71
2023/06/19 05:59:05;;;;;;;17.50;10.18;;;;;;;;;;5025498;28;20025;-71
2023/06/19 06:01:30;;;;;;;20.27;9.65;;;;;;;;;;5025327;28;20039;-71
2023/06/19 06:03:56;;;;;;;18.50;9.55;;;;;;;;;;5025645;28;20049;-71
2023/06/19 06:06:25;;;;;;;19.38;10.35;;;;;;;;;;5025264;28;20029;-71
2023/06/19 06:08:51;;;;;;;15.13;9.48;;;;;;;;;;5025712;28;20098;-71
2023/06/19 06:11:17;;;;;;;20.55;9.82;;;;;;;;;;5024895;28;20450;-71
2023/06/19 06:13:42;;;;;;;23.58;9.88;;;;;;;;;;5028058;28;20033;-71
2023/06/19 06:16:07;;;;;;;16.70;9.30;;;;;;;;;;5033581;28;20076;-71
2023/06/19 06:18:33;;;;;;;15.80;9.48;;;;;;;;;;5030566;28;20120;-71
2023/06/19 06:20:59;;;;;;;19.52;9.07;;;;;;;;;;5024860;28;20044;-71
2023/06/19 06:23:25;;;;;;;17.95;9.98;;;;;;;;;;5025027;28;20049;-71
2023/06/19 06:25:50;;;;;;;22.48;9.88;;;;;;;;;;5024600;28;20030;-71
2023/06/19 06:28:17;;;;;;;18.38;9.98;;;;;;;;;;5024522;28;20057;-71
2023/06/19 06:30:43;;;;;;;19.83;10.13;;;;;;;;;;5025225;28;20052;-71
2023/06/19 06:33:08;;;;;;;16.05;9.80;;;;;;;;;;5025084;28;20053;-71
2023/06/19 06:35:35;;;;;;;16.10;9.50;;;;;;;;;;5024821;28;20570;-70
2023/06/19 06:38:01;;;;;;;17.75;9.13;;;;;;;;;;5024569;28;20030;-71
2023/06/19 06:40:27;;;;;;;16.67;7.65;;;;;;;;;;5024804;28;20107;-71
2023/06/19 06:42:53;;;;;;;17.17;9.73;;;;;;;;;;5025509;28;20026;-71
2023/06/19 06:45:19;;;;;;;18.27;9.93;;;;;;;;;;5024328;28;20073;-71
2023/06/19 06:47:44;;;;;;;18.17;9.50;;;;;;;;;;5023110;28;20072;-71
2023/06/19 06:50:10;;;;;;;20.10;10.63;;;;;;;;;;5024735;28;20128;-72
2023/06/19 06:52:35;;;;;;;17.88;9.95;;;;;;;;;;5024166;28;20029;-72
2023/06/19 06:55:01;;;;;;;15.98;9.65;;;;;;;;;;5023864;28;20053;-72
2023/06/19 06:57:26;;;;;;;15.10;7.72;;;;;;;;;;5024559;28;20064;-73
2023/06/19 06:59:51;;;;;;;14.40;9.07;;;;;;;;;;5023887;28;20041;-72
2023/06/19 07:02:17;;;;;;;18.90;9.45;;;;;;;;;;5024205;28;20458;-72
2023/06/19 07:04:42;;;;;;;14.57;8.68;;;;;;;;;;5023415;28;20033;-72
2023/06/19 07:07:08;;;;;;;15.02;8.75;;;;;;;;;;5024587;28;20079;-72
2023/06/19 07:09:34;;;;;;;15.35;8.75;;;;;;;;;;5022426;28;20083;-72
2023/06/19 07:12:01;;;;;;;12.85;8.50;;;;;;;;;;5012763;28;20045;-73
2023/06/19 07:14:27;;;;;;;14.25;8.30;;;;;;;;;;5016831;28;20466;-72
2023/06/19 07:16:52;;;;;;;13.30;8.00;;;;;;;;;;5022077;28;20668;-73
2023/06/19 07:19:17;;;;;;;15.43;8.68;;;;;;;;;;5014577;28;20026;-73
2023/06/19 07:21:43;;;;;;;12.95;7.80;;;;;;;;;;5020291;28;20022;-72
2023/06/19 07:24:09;;;;;;;13.95;8.40;;;;;;;;;;5023693;28;20065;-73
2023/06/19 07:26:34;;;;;;;13.40;8.43;;;;;;;;;;5022448;28;20120;-73
2023/06/19 07:29:00;;;;;;;13.82;7.78;;;;;;;;;;5023682;28;20047;-73
2023/06/19 07:31:25;;;;;;;19.10;9.77;;;;;;;;;;5024260;28;20029;-72
2023/06/19 07:33:50;;;;;;;15.07;8.77;;;;;;;;;;5025143;28;20100;-72
2023/06/19 07:36:16;;;;;;;14.43;9.07;;;;;;;;;;5030610;28;20033;-72
2023/06/19 07:38:45;;;;;;;15.85;8.60;;;;;;;;;;5031899;28;20037;-73
2023/06/19 07:41:11;;;;;;;14.50;8.95;;;;;;;;;;5034126;28;20116;-72
2023/06/19 07:43:39;;;;;;;14.95;8.80;;;;;;;;;;5041719;28;20091;-73
2023/06/19 07:46:05;;;;;;;13.85;8.68;;;;;;;;;;5030705;28;20071;-73
2023/06/19 07:48:30;;;;;;;14.90;7.65;;;;;;;;;;5030497;28;20076;-73
2023/06/19 07:50:56;;;;;;;11.82;7.45;;;;;;;;;;5030429;28;20034;-73
2023/06/19 07:53:21;;;;;;;12.07;8.35;;;;;;;;;;5029888;28;20065;-73
2023/06/19 07:55:47;;;;;;;12.73;7.22;;;;;;;;;;5029996;28;20041;-73
2023/06/19 07:58:12;;;;;;;13.68;7.68;;;;;;;;;;5030062;28;20079;-73
2023/06/19 08:00:37;;;;;;;14.57;8.68;;;;;;;;;;5029347;28;20037;-73
2023/06/19 08:03:03;;;;;;;14.75;8.18;;;;;;;;;;5029502;28;20037;-73
2023/06/19 08:05:29;;;;;;;14.65;7.82;;;;;;;;;;5029701;28;20099;-72
2023/06/19 08:07:55;;;;;;;20.38;10.07;;;;;;;;;;5030255;28;20132;-72
2023/06/19 08:10:21;;;;;;;14.75;8.30;;;;;;;;;;5029495;28;20021;-73
2023/06/19 08:12:46;;;;;;;16.25;8.70;;;;;;;;;;5028536;28;20093;-73
2023/06/19 08:15:15;;;;;;;17.58;9.50;;;;;;;;;;5028589;28;20026;-73
2023/06/19 08:17:41;;;;;;;16.23;9.40;;;;;;;;;;5029132;28;20045;-73
2023/06/19 08:20:07;;;;;;;14.57;8.63;;;;;;;;;;5022469;28;20037;-73
2023/06/19 08:22:33;;;;;;;15.68;9.25;;;;;;;;;;5025716;28;20025;-73
2023/06/19 08:24:58;;;;;;;17.20;9.52;;;;;;;;;;5025227;28;20478;-72
2023/06/19 08:27:24;;;;;;;15.27;9.82;;;;;;;;;;5020579;28;20129;-73
2023/06/19 08:29:49;;;;;;;14.50;9.43;;;;;;;;;;5025754;28;20407;-73
2023/06/19 08:32:14;;;;;;;15.27;8.80;;;;;;;;;;5010870;28;20095;-73
2023/06/19 08:34:41;;;;;;;15.15;9.02;;;;;;;;;;5029259;28;20037;-73
2023/06/19 08:37:06;;;;;;;14.77;8.38;;;;;;;;;;5017835;28;20030;-73
2023/06/19 08:39:32;;;;;;;14.13;9.13;;;;;;;;;;5020273;28;20042;-73
2023/06/19 08:41:57;;;;;;;13.02;8.10;;;;;;;;;;5008206;28;20041;-73
2023/06/19 08:44:22;;;;;;;16.95;8.75;;;;;;;;;;5022503;28;20439;-73
2023/06/19 08:46:48;;;;;;;13.20;8.30;;;;;;;;;;5027573;28;20060;-73
2023/06/19 08:49:13;;;;;;;12.98;7.70;;;;;;;;;;5026484;28;20396;-73
2023/06/19 08:51:40;;;;;;;14.10;8.50;;;;;;;;;;5026225;28;20554;-73
2023/06/19 08:54:06;;;;;;;22.35;11.60;;;;;;;;;;5020524;28;20045;-73
2023/06/19 08:56:34;;;;;;;19.23;10.25;;;;;;;;;;5015693;28;20034;-72
2023/06/19 08:59:15;;;;;;;18.73;10.65;;;;;;;;;;5017013;28;20042;-73
2023/06/19 09:01:51;;;;;;;19.40;10.70;;;;;;;;;;5020341;28;20068;-72
2023/06/19 09:04:19;;;;;;;15.32;9.35;;;;;;;;;;5020640;28;20041;-72
2023/06/19 09:06:52;;;;;;;16.95;10.45;;;;;;;;;;5030104;28;20071;-72
2023/06/19 09:09:20;;;;;;;19.77;10.57;;;;;;;;;;5036442;28;20049;-72
2023/06/19 09:12:00;;;;;;;17.92;10.30;;;;;;;;;;5025309;28;20107;-72
2023/06/19 09:14:33;;;;;;;14.35;10.25;;;;;;;;;;5014112;28;20045;-72
2023/06/19 09:17:00;;;;;;;16.63;9.15;;;;;;;;;;5024132;28;20120;-72
2023/06/19 09:19:26;;;;;;;16.08;9.05;;;;;;;;;;5025849;28;20033;-72
2023/06/19 09:21:51;;;;;;;14.63;8.90;;;;;;;;;;5017618;28;20040;-72
2023/06/19 09:24:17;;;;;;;14.18;9.13;;;;;;;;;;5025197;28;20033;-72
2023/06/19 09:26:42;;;;;;;13.93;9.02;;;;;;;;;;5019837;28;20030;-72
2023/06/19 09:29:15;;;;;;;15.02;8.90;;;;;;;;;;5020676;28;20069;-72
2023/06/19 09:31:41;;;;;;;17.30;9.38;;;;;;;;;;5025165;28;20032;-72
2023/06/19 09:34:07;;;;;;;14.20;9.13;;;;;;;;;;5024115;28;20033;-72
2023/06/19 09:36:33;;;;;;;14.55;8.55;;;;;;;;;;5021473;28;20533;-72
2023/06/19 09:39:01;;;;;;;13.43;8.98;;;;;;;;;;5020797;28;20064;-73
2023/06/19 09:41:29;;;;;;;12.55;7.90;;;;;;;;;;5021709;28;20055;-73
2023/06/19 09:43:59;;;;;;;15.55;7.35;;;;;;;;;;5025108;28;20099;-73
2023/06/19 09:46:29;;;;;;;13.52;7.43;;;;;;;;;;5025227;28;20038;-73
2023/06/19 09:48:58;;;;;;;14.82;7.25;;;;;;;;;;5024907;28;20399;-73
2023/06/19 09:51:30;;;;;;;11.02;7.20;;;;;;;;;;5024361;28;20063;-73
2023/06/19 09:53:58;;;;;;;12.30;7.75;;;;;;;;;;5012693;28;20056;-73
2023/06/19 09:56:25;;;;;;;13.85;7.80;;;;;;;;;;5029245;28;20133;-73
2023/06/19 09:58:53;;;;;;;11.13;7.22;;;;;;;;;;5024061;28;20036;-73
2023/06/19 10:01:19;;;;;;;13.35;7.18;;;;;;;;;;5025254;28;20029;-73
2023/06/19 10:03:44;;;;;;;10.82;6.22;;;;;;;;;;5024092;28;20154;-73
2023/06/19 10:06:15;;;;;;;11.00;6.97;;;;;;;;;;5021171;28;20069;-73
2023/06/19 10:08:43;;;;;;;14.23;7.13;;;;;;;;;;5013804;28;20140;-73
2023/06/19 10:11:08;;;;;;;12.85;6.72;;;;;;;;;;5020520;28;20041;-73
2023/06/19 10:13:38;;;;;;;9.07;5.60;;;;;;;;;;5023581;28;20060;-73
2023/06/19 10:16:04;;;;;;;9.68;6.03;;;;;;;;;;5024631;28;20083;-73
2023/06/19 10:18:32;;;;;;;10.93;6.93;;;;;;;;;;5022759;28;20037;-73
2023/06/19 10:20:57;;;;;;;11.80;6.70;;;;;;;;;;5022086;28;20642;-73
2023/06/19 10:23:26;;;;;;;9.70;5.95;;;;;;;;;;5024464;28;20135;-73
2023/06/19 10:25:57;;;;;;;12.63;7.38;;;;;;;;;;5024030;28;20820;-73
2023/06/19 10:28:22;;;;;;;11.80;6.70;;;;;;;;;;5023379;28;20025;-73
2023/06/19 10:30:57;;;;;;;10.95;5.68;;;;;;;;;;5024142;28;20075;-73
2023/06/19 10:33:30;;;;;;;9.90;6.65;;;;;;;;;;5028878;28;20045;-73
2023/06/19 10:35:57;;;;;;;9.57;6.25;;;;;;;;;;5034118;28;20052;-73
2023/06/19 10:38:22;;;;;;;12.90;6.70;;;;;;;;;;5027282;28;20074;-73
2023/06/19 10:40:48;;;;;;;9.00;5.40;;;;;;;;;;5023844;28;20453;-73
2023/06/19 10:43:21;;;;;;;7.97;5.30;;;;;;;;;;5024508;28;20028;-73
2023/06/19 10:45:46;;;;;;;12.10;5.25;;;;;;;;;;5023593;28;20132;-73
2023/06/19 10:48:18;;;;;;;8.32;5.18;;;;;;;;;;5023531;28;20141;-73
2023/06/19 10:50:44;;;;;;;9.93;5.65;;;;;;;;;;5017936;28;20667;-73
2023/06/19 10:53:09;;;;;;;10.75;6.03;;;;;;;;;;5019153;28;20037;-73
2023/06/19 10:55:34;;;;;;;10.38;6.10;;;;;;;;;;5018164;28;20129;-73
2023/06/19 10:58:00;;;;;;;8.05;5.63;;;;;;;;;;5018127;28;20029;-72
2023/06/19 11:00:31;;;;;;;9.23;5.10;;;;;;;;;;5022608;28;20057;-72
2023/06/19 11:02:57;;;;;;;9.77;5.28;;;;;;;;;;5022781;28;20041;-72
2023/06/19 11:05:24;;;;;;;7.68;4.90;;;;;;;;;;5023705;28;20037;-72
2023/06/19 11:07:53;;;;;;;8.85;4.75;;;;;;;;;;5010213;28;20139;-72
2023/06/19 11:10:22;;;;;;;8.57;5.47;;;;;;;;;;5022368;28;20064;-72
2023/06/19 11:12:47;;;;;;;8.13;5.40;;;;;;;;;;5023442;28;20021;-72
2023/06/19 11:15:13;;;;;;;7.78;5.07;;;;;;;;;;5022800;28;20052;-72
2023/06/19 11:17:38;;;;;;;6.93;5.05;;;;;;;;;;5019567;28;20083;-72
2023/06/19 11:20:09;;;;;;;9.18;5.28;;;;;;;;;;5020557;28;20092;-72
2023/06/19 11:22:40;;;;;;;9.07;5.18;;;;;;;;;;5012703;28;20045;-72
2023/06/19 11:25:07;;;;;;;9.65;5.72;;;;;;;;;;5023614;28;20025;-72
2023/06/19 11:27:32;;;;;;;8.57;5.35;;;;;;;;;;5023462;28;20033;-72
2023/06/19 11:29:59;;;;;;;6.90;5.03;;;;;;;;;;5022827;28;20049;-72
2023/06/19 11:32:30;;;;;;;11.32;5.28;;;;;;;;;;5023277;28;20089;-72
2023/06/19 11:34:56;;;;;;;12.68;6.00;;;;;;;;;;5022610;28;20084;-72
2023/06/19 11:37:22;;;;;;;10.05;5.43;;;;;;;;;;5023404;28;20033;-72
2023/06/19 11:39:49;;;;;;;8.45;5.40;;;;;;;;;;5023583;28;20025;-72
2023/06/19 11:42:17;;;;;;;7.45;5.30;;;;;;;;;;5021522;28;20112;-72
2023/06/19 11:45:06;;;;;;;7.72;5.47;;;;;;;;;;5014327;28;20773;-72
2023/06/19 11:47:32;;;;;;;9.02;5.70;;;;;;;;;;5017122;28;20055;-72
2023/06/19 11:49:58;;;;;;;11.50;5.50;;;;;;;;;;5023413;28;20047;-72
2023/06/19 11:52:23;;;;;;;11.05;6.00;;;;;;;;;;5019847;28;20566;-73
2023/06/19 11:54:49;;;;;;;11.77;5.72;;;;;;;;;;5023793;28;20033;-73
2023/06/19 11:57:14;;;;;;;10.13;5.55;;;;;;;;;;5022434;28;20034;-73
2023/06/19 11:59:41;;;;;;;8.57;5.45;;;;;;;;;;5021051;28;20034;-73
2023/06/19 12:02:06;;;;;;;8.40;5.22;;;;;;;;;;5032047;28;20033;-73
2023/06/19 12:04:32;;;;;;;10.07;5.03;;;;;;;;;;5031914;28;20071;-73
2023/06/19 12:06:58;;;;;;;8.45;5.50;;;;;;;;;;5025134;28;20079;-73
2023/06/19 12:09:23;;;;;;;9.45;5.85;;;;;;;;;;5023786;28;20061;-73
2023/06/19 12:11:48;;;;;;;8.43;5.57;;;;;;;;;;5023036;28;20502;-73
2023/06/19 12:14:14;;;;;;;8.95;5.70;;;;;;;;;;5023393;28;20096;-73
2023/06/19 12:16:39;;;;;;;8.70;5.40;;;;;;;;;;5023007;28;20033;-73
2023/06/19 12:19:04;;;;;;;9.73;6.13;;;;;;;;;;5023676;28;20029;-73
2023/06/19 12:21:30;;;;;;;8.57;5.72;;;;;;;;;;5020170;28;20439;-73
2023/06/19 12:23:55;;;;;;;8.57;5.95;;;;;;;;;;5020760;28;20083;-73
2023/06/19 12:26:20;;;;;;;8.50;5.25;;;;;;;;;;5024827;28;20523;-73
2023/06/19 12:28:46;;;;;;;9.93;5.15;;;;;;;;;;5021270;28;20399;-73
2023/06/19 12:31:11;;;;;;;9.10;5.50;;;;;;;;;;5023797;28;20032;-73
2023/06/19 12:33:42;;;;;;;9.40;6.40;;;;;;;;;;5016641;28;20052;-73
2023/06/19 12:36:08;;;;;;;8.85;5.97;;;;;;;;;;5018343;28;20040;-73
2023/06/19 12:38:38;;;;;;;10.60;5.97;;;;;;;;;;5016341;28;20022;-73
2023/06/19 12:41:03;;;;;;;8.43;5.70;;;;;;;;;;5020396;28;20037;-73
2023/06/19 12:43:31;;;;;;;6.75;4.95;;;;;;;;;;5019745;28;20037;-73
2023/06/19 12:45:57;;;;;;;12.70;5.05;;;;;;;;;;5018603;28;20040;-73
2023/06/19 12:48:22;;;;;;;10.50;5.70;;;;;;;;;;5015894;28;20030;-73
2023/06/19 12:50:47;;;;;;;9.98;6.15;;;;;;;;;;5016003;28;20069;-73
2023/06/19 12:53:13;;;;;;;7.40;5.05;;;;;;;;;;5016415;28;20073;-73
2023/06/19 12:55:38;;;;;;;10.52;6.00;;;;;;;;;;5021198;28;20430;-73
2023/06/19 12:58:03;;;;;;;7.82;5.40;;;;;;;;;;5013703;28;20312;-73
2023/06/19 13:00:29;;;;;;;7.38;5.32;;;;;;;;;;5014969;28;20108;-73
2023/06/19 13:02:54;;;;;;;9.40;5.43;;;;;;;;;;5016204;28;20065;-73
2023/06/19 13:05:20;;;;;;;7.20;5.15;;;;;;;;;;5005306;28;20065;-73
2023/06/19 13:07:45;;;;;;;7.43;5.22;;;;;;;;;;5014098;28;20084;-73
2023/06/19 13:10:10;;;;;;;8.10;5.20;;;;;;;;;;5012646;28;20029;-73
2023/06/19 13:12:36;;;;;;;6.75;5.25;;;;;;;;;;5019475;28;20038;-71
2023/06/19 13:15:01;;;;;;;7.82;5.00;;;;;;;;;;5024641;28;20463;-72
2023/06/19 13:17:27;;;;;;;7.47;5.60;;;;;;;;;;5022916;28;20076;-72
2023/06/19 13:19:52;;;;;;;7.28;5.20;;;;;;;;;;5015408;28;20034;-71
2023/06/19 13:22:17;;;;;;;10.25;5.57;;;;;;;;;;5016341;28;20056;-71
2023/06/19 13:24:43;;;;;;;7.72;5.03;;;;;;;;;;5013139;28;20017;-72
2023/06/19 13:27:08;;;;;;;8.32;5.65;;;;;;;;;;5022089;28;20049;-73
2023/06/19 13:29:34;;;;;;;10.10;5.45;;;;;;;;;;5028456;28;20045;-73
2023/06/19 13:31:59;;;;;;;8.38;5.63;;;;;;;;;;5023034;28;20057;-72
2023/06/19 13:34:25;;;;;;;6.53;4.78;;;;;;;;;;5024297;28;20499;-73
2023/06/19 13:36:50;;;;;;;7.53;4.97;;;;;;;;;;5015638;28;20087;-73
2023/06/19 13:39:19;;;;;;;8.57;5.05;;;;;;;;;;5013960;28;20072;-72
2023/06/19 13:41:44;;;;;;;6.93;4.80;;;;;;;;;;5016645;28;20037;-72
2023/06/19 13:44:09;;;;;;;6.25;5.13;;;;;;;;;;5013899;28;20040;-72
2023/06/19 13:46:35;;;;;;;6.60;4.90;;;;;;;;;;5013493;28;20068;-73
2023/06/19 13:49:00;;;;;;;6.22;4.82;;;;;;;;;;5011749;28;20018;-72
2023/06/19 13:51:26;;;;;;;9.25;5.18;;;;;;;;;;5012410;28;20467;-73
2023/06/19 13:53:52;;;;;;;8.05;4.97;;;;;;;;;;5014599;28;20038;-73
2023/06/19 13:56:17;;;;;;;10.23;5.00;;;;;;;;;;5010682;28;20037;-72
2023/06/19 13:58:43;;;;;;;6.35;4.78;;;;;;;;;;5014320;28;20033;-73
2023/06/19 14:01:09;;;;;;;6.70;4.40;;;;;;;;;;5030829;28;20426;-72
2023/06/19 14:03:38;;;;;;;6.15;4.22;;;;;;;;;;5017234;28;20033;-72
2023/06/19 14:06:04;;;;;;;6.80;4.60;;;;;;;;;;5015180;28;20103;-72
2023/06/19 14:08:29;;;;;;;5.60;4.30;;;;;;;;;;5013307;28;20049;-72
2023/06/19 14:10:55;;;;;;;4.25;3.78;;;;;;;;;;5013054;28;20092;-72
2023/06/19 14:13:20;;;;;;;5.32;4.60;;;;;;;;;;5019413;28;20530;-72
2023/06/19 14:15:46;;;;;;;6.75;4.65;;;;;;;;;;5014599;28;20014;-72
2023/06/19 14:18:11;;;;;;;5.57;4.20;;;;;;;;;;5015437;28;20038;-72
2023/06/19 14:20:36;;;;;;;6.68;4.55;;;;;;;;;;5012166;28;20099;-72
2023/06/19 14:23:02;;;;;;;7.85;4.30;;;;;;;;;;5009699;28;20048;-73
2023/06/19 14:25:27;;;;;;;7.82;5.05;;;;;;;;;;5012274;28;20052;-73
2023/06/19 14:27:53;;;;;;;5.03;4.30;;;;;;;;;;5014220;28;20044;-73